createdAt,value
2022-08-08T00:02:43.275Z,20.10
2022-08-08T00:06:03.831Z,20.00
2022-08-08T00:09:16.176Z,20.00
2022-08-08T00:12:25.478Z,20.00
2022-08-08T00:15:57.300Z,20.10
2022-08-08T00:19:16.756Z,20.00
2022-08-08T00:22:26.369Z,19.90
2022-08-08T00:25:54.172Z,19.90
2022-08-08T00:29:02.856Z,19.90
2022-08-08T00:32:38.749Z,19.80
2022-08-08T00:35:50.077Z,19.70
2022-08-08T00:41:09.556Z,19.60
2022-08-08T00:42:47.454Z,19.60
2022-08-08T00:46:16.520Z,19.60
2022-08-08T00:49:32.202Z,19.50
2022-08-08T00:52:43.965Z,19.50
2022-08-08T00:56:02.943Z,19.50
2022-08-08T00:59:43.840Z,19.40
2022-08-08T01:03:59.896Z,19.40
2022-08-08T01:06:49.069Z,19.40
2022-08-08T01:10:06.263Z,19.30
2022-08-08T01:13:52.851Z,19.30
2022-08-08T01:17:09.132Z,19.30
2022-08-08T01:20:36.309Z,19.30
2022-08-08T01:24:06.238Z,19.20
2022-08-08T01:27:32.971Z,19.20
2022-08-08T01:32:06.821Z,19.10
2022-08-08T01:34:54.042Z,19.10
2022-08-08T01:37:59.229Z,19.00
2022-08-08T01:41:34.378Z,19.00
2022-08-08T01:44:54.849Z,19.10
2022-08-08T01:48:33.523Z,19.10
2022-08-08T01:53:10.413Z,19.00
2022-08-08T01:56:27.108Z,18.90
2022-08-08T02:00:01.955Z,19.00
2022-08-08T02:03:50.551Z,18.90
2022-08-08T02:07:04.285Z,18.90
2022-08-08T02:10:14.863Z,18.90
2022-08-08T02:13:53.108Z,18.90
2022-08-08T02:17:20.174Z,18.90
2022-08-08T02:21:03.134Z,18.90
2022-08-08T02:24:16.646Z,18.80
2022-08-08T02:27:47.763Z,18.90
2022-08-08T02:31:04.631Z,18.80
2022-08-08T02:34:09.836Z,18.70
2022-08-08T02:37:52.146Z,18.80
2022-08-08T02:42:04.317Z,18.80
2022-08-08T02:44:52.881Z,18.90
2022-08-08T02:48:26.225Z,18.90
2022-08-08T02:51:46.341Z,19.00
2022-08-08T02:55:37.322Z,19.20
2022-08-08T02:59:25.757Z,19.30
2022-08-08T03:02:38.006Z,19.40
2022-08-08T03:06:08.047Z,19.40
2022-08-08T03:09:33.745Z,19.10
2022-08-08T03:13:33.473Z,19.10
2022-08-08T03:16:43.233Z,19.10
2022-08-08T03:20:08.266Z,19.00
2022-08-08T03:23:12.606Z,18.80
2022-08-08T03:26:42.150Z,18.90
2022-08-08T03:29:58.224Z,19.10
2022-08-08T03:33:55.766Z,19.10
2022-08-08T03:36:42.497Z,19.00
2022-08-08T03:39:52.069Z,19.30
2022-08-08T03:43:16.876Z,19.30
2022-08-08T03:46:22.077Z,19.40
2022-08-08T03:49:57.388Z,19.40
2022-08-08T03:52:49.710Z,19.40
2022-08-08T03:55:56.043Z,19.50
2022-08-08T03:58:59.257Z,19.60
2022-08-08T04:02:22.927Z,19.70
2022-08-08T04:05:32.924Z,20.00
2022-08-08T04:08:37.889Z,20.10
2022-08-08T04:11:58.579Z,20.10
2022-08-08T04:15:02.451Z,20.30
2022-08-08T04:18:05.310Z,20.20
2022-08-08T04:21:07.297Z,20.30
2022-08-08T04:24:19.012Z,20.30
2022-08-08T04:28:02.507Z,20.30
2022-08-08T04:30:55.269Z,20.40
2022-08-08T04:33:59.481Z,20.40
2022-08-08T04:37:03.987Z,20.40
2022-08-08T04:40:10.792Z,20.50
2022-08-08T04:43:14.813Z,20.70
2022-08-08T04:46:18.653Z,20.80
2022-08-08T04:49:20.704Z,20.80
2022-08-08T04:52:33.514Z,20.90
2022-08-08T04:55:47.777Z,21.10
2022-08-08T04:58:58.334Z,21.20
2022-08-08T05:02:01.005Z,21.50
2022-08-08T05:05:03.140Z,21.50
2022-08-08T05:08:06.853Z,21.70
2022-08-08T05:11:22.827Z,21.80
2022-08-08T05:14:26.776Z,21.80
2022-08-08T05:17:53.711Z,22.20
2022-08-08T05:20:54.321Z,22.20
2022-08-08T05:24:04.134Z,22.30
2022-08-08T05:27:10.716Z,22.50
2022-08-08T05:30:12.844Z,22.30
2022-08-08T05:33:16.943Z,22.30
2022-08-08T05:36:25.744Z,22.40
2022-08-08T05:39:35.013Z,22.40
2022-08-08T05:42:42.394Z,22.50
2022-08-08T05:45:53.226Z,22.50
2022-08-08T05:48:58.263Z,22.70
2022-08-08T05:52:03.277Z,22.80
2022-08-08T05:55:10.130Z,22.90
2022-08-08T05:58:17.650Z,23.20
2022-08-08T06:01:55.822Z,23.10
2022-08-08T06:04:47.722Z,23.30
2022-08-08T06:08:02.082Z,23.30
2022-08-08T06:11:05.771Z,23.40
2022-08-08T06:14:12.958Z,23.50
2022-08-08T06:17:19.658Z,23.60
2022-08-08T06:20:21.827Z,23.50
2022-08-08T06:24:01.830Z,23.70
2022-08-08T06:27:04.754Z,23.70
2022-08-08T06:30:19.814Z,23.90
2022-08-08T06:33:37.354Z,23.80
2022-08-08T06:37:00.929Z,23.50
2022-08-08T06:40:25.774Z,23.30
2022-08-08T06:43:35.897Z,23.40
2022-08-08T06:46:38.608Z,23.40
2022-08-08T06:49:56.438Z,23.50
2022-08-08T06:53:10.007Z,23.70
2022-08-08T06:56:16.859Z,23.40
2022-08-08T06:59:18.908Z,23.20
2022-08-08T07:02:29.471Z,23.20
2022-08-08T07:05:40.763Z,23.30
2022-08-08T07:08:48.313Z,23.30
2022-08-08T07:11:55.076Z,23.30
2022-08-08T07:15:23.341Z,23.30
2022-08-08T07:18:49.231Z,23.20
2022-08-08T07:22:18.678Z,22.70
2022-08-08T07:25:24.063Z,22.80
2022-08-08T07:28:36.677Z,22.90
2022-08-08T07:31:41.345Z,23.10
2022-08-08T07:34:59.593Z,23.40
2022-08-08T07:38:10.566Z,23.30
2022-08-08T07:41:25.416Z,23.30
2022-08-08T07:44:40.815Z,23.40
2022-08-08T07:47:49.126Z,23.30
2022-08-08T07:50:58.738Z,22.90
2022-08-08T07:54:38.407Z,23.20
2022-08-08T07:57:49.496Z,23.40
2022-08-08T08:00:57.303Z,23.60
2022-08-08T08:04:13.951Z,23.50
2022-08-08T08:07:19.214Z,23.70
2022-08-08T08:10:30.682Z,23.40
2022-08-08T08:14:07.798Z,23.70
2022-08-08T08:17:12.356Z,23.70
2022-08-08T08:20:18.283Z,23.90
2022-08-08T08:23:20.372Z,23.90
2022-08-08T08:26:29.471Z,24.10
2022-08-08T08:29:31.904Z,24.30
2022-08-08T08:32:35.910Z,24.50
2022-08-08T08:36:19.922Z,24.40
2022-08-08T08:39:07.570Z,24.40
2022-08-08T08:42:31.297Z,24.50
2022-08-08T08:45:38.842Z,24.80
2022-08-08T08:48:49.607Z,24.40
2022-08-08T08:51:52.970Z,24.80
2022-08-08T08:54:59.947Z,24.70
2022-08-08T08:58:04.249Z,24.90
2022-08-08T09:01:10.302Z,24.90
2022-08-08T09:04:32.017Z,25.00
2022-08-08T09:07:52.280Z,25.20
2022-08-08T09:11:07.560Z,24.90
2022-08-08T09:14:13.004Z,25.00
2022-08-08T09:17:19.158Z,25.00
2022-08-08T09:21:57.187Z,25.10
2022-08-08T09:23:44.225Z,25.10
2022-08-08T09:26:58.931Z,25.30
2022-08-08T09:30:14.675Z,25.10
2022-08-08T09:34:15.115Z,25.20
2022-08-08T09:36:51.744Z,25.40
2022-08-08T09:40:11.966Z,25.80
2022-08-08T09:44:04.174Z,25.90
2022-08-08T09:46:57.642Z,25.90
2022-08-08T09:50:19.733Z,25.90
2022-08-08T09:53:56.578Z,26.20
2022-08-08T09:57:02.673Z,26.10
2022-08-08T10:03:40.101Z,26.00
2022-08-08T10:06:53.038Z,26.00
2022-08-08T10:10:00.119Z,26.00
2022-08-08T10:13:32.287Z,26.00
2022-08-08T10:52:28.330Z,26.20
2022-08-08T10:55:40.876Z,26.00
2022-08-08T10:58:47.467Z,25.80
2022-08-08T11:01:57.048Z,25.60
2022-08-08T11:05:05.313Z,25.70
2022-08-08T11:08:30.837Z,25.70
2022-08-08T11:12:05.564Z,25.80
2022-08-08T11:15:07.080Z,25.90
2022-08-08T11:18:09.494Z,26.00
2022-08-08T11:21:19.607Z,26.00
2022-08-08T11:24:25.259Z,26.40
2022-08-08T11:27:37.285Z,26.00
2022-08-08T11:30:50.405Z,25.90
2022-08-08T11:34:01.642Z,26.00
2022-08-08T11:37:14.738Z,26.00
2022-08-08T11:40:22.509Z,26.30
2022-08-08T11:43:39.573Z,26.60
2022-08-08T11:46:44.399Z,26.40
2022-08-08T11:49:49.292Z,26.30
2022-08-08T11:52:52.433Z,26.30
2022-08-08T11:55:55.381Z,26.60
2022-08-08T11:59:09.936Z,26.80
2022-08-08T12:02:31.056Z,26.80
2022-08-08T12:05:36.258Z,26.50
2022-08-08T12:08:38.460Z,27.00
2022-08-08T12:11:43.156Z,27.10
2022-08-08T12:15:00.247Z,27.10
2022-08-08T12:18:20.814Z,27.60
2022-08-08T12:21:59.590Z,27.80
2022-08-08T12:24:56.758Z,27.50
2022-08-08T12:28:16.143Z,27.20
2022-08-08T12:31:18.623Z,27.30
2022-08-08T12:34:43.279Z,27.20
2022-08-08T12:38:02.174Z,27.30
2022-08-08T12:41:18.183Z,27.40
2022-08-08T12:44:36.632Z,27.00
2022-08-08T12:48:04.905Z,27.10
2022-08-08T12:51:03.652Z,27.60
2022-08-08T12:54:24.380Z,27.10
2022-08-08T12:57:29.048Z,27.10
2022-08-08T13:00:39.158Z,27.30
2022-08-08T13:03:52.081Z,27.20
2022-08-08T13:06:57.328Z,27.30
2022-08-08T13:10:10.656Z,27.60
2022-08-08T13:13:27.754Z,27.70
2022-08-08T13:16:34.164Z,27.80
2022-08-08T13:19:49.646Z,27.90
2022-08-08T13:23:08.327Z,27.70
2022-08-08T13:26:14.677Z,27.00
2022-08-08T13:29:16.957Z,26.90
2022-08-08T13:32:26.755Z,27.00
2022-08-08T13:35:38.181Z,27.60
2022-08-08T13:38:41.412Z,27.50
2022-08-08T13:41:53.726Z,27.50
2022-08-08T13:44:59.452Z,27.20
2022-08-08T13:48:03.960Z,27.40
2022-08-08T13:51:33.465Z,27.60
2022-08-08T13:54:35.131Z,27.50
2022-08-08T13:58:06.264Z,27.40
2022-08-08T14:01:18.237Z,27.90
2022-08-08T14:04:24.686Z,28.80
2022-08-08T14:07:32.805Z,29.10
2022-08-08T14:10:37.396Z,28.80
2022-08-08T14:13:59.676Z,30.00
2022-08-08T14:17:11.830Z,29.70
2022-08-08T14:20:56.476Z,28.10
2022-08-08T14:24:06.788Z,27.50
2022-08-08T14:27:27.083Z,27.30
2022-08-08T14:30:35.218Z,27.50
2022-08-08T14:33:39.321Z,27.60
2022-08-08T14:36:51.760Z,27.20
2022-08-08T14:40:06.401Z,27.10
2022-08-08T14:43:31.287Z,27.00
2022-08-08T14:46:33.056Z,26.90
2022-08-08T14:49:37.724Z,27.00
2022-08-08T14:53:13.510Z,26.90
2022-08-08T14:56:16.447Z,26.80
2022-08-08T14:59:22.126Z,27.10
2022-08-08T15:02:58.798Z,26.90
2022-08-08T15:06:03.363Z,27.00
2022-08-08T15:09:07.149Z,27.60
2022-08-08T15:12:09.364Z,29.20
2022-08-08T15:15:18.656Z,30.60
2022-08-08T15:18:40.071Z,31.70
2022-08-08T15:21:46.601Z,31.30
2022-08-08T15:24:50.195Z,31.30
2022-08-08T15:28:04.345Z,31.20
2022-08-08T15:31:25.696Z,30.80
2022-08-08T15:34:37.544Z,30.90
2022-08-08T15:37:40.823Z,31.00
2022-08-08T15:40:44.346Z,30.20
2022-08-08T15:44:00.583Z,28.10
2022-08-08T15:47:03.762Z,27.30
2022-08-08T15:50:16.803Z,27.10
2022-08-08T15:53:23.837Z,28.30
2022-08-08T15:56:28.119Z,29.90
2022-08-08T16:00:05.805Z,30.20
2022-08-08T16:02:53.250Z,27.90
2022-08-08T16:06:01.615Z,26.60
2022-08-08T16:13:03.639Z,28.80
2022-08-08T16:13:14.179Z,28.80
2022-08-08T16:15:59.235Z,29.00
2022-08-08T16:19:10.964Z,28.70
2022-08-08T16:22:30.239Z,28.50
2022-08-08T16:25:46.132Z,28.50
2022-08-08T16:28:55.658Z,28.90
2022-08-08T16:31:57.720Z,28.60
2022-08-08T16:35:03.313Z,28.60
2022-08-08T16:38:09.719Z,28.10
2022-08-08T16:41:18.517Z,27.90
2022-08-08T16:44:28.048Z,28.10
2022-08-08T16:47:41.783Z,28.10
2022-08-08T16:50:44.680Z,27.80
2022-08-08T16:55:00.531Z,27.40
2022-08-08T16:57:23.436Z,26.90
2022-08-08T17:00:30.407Z,26.50
2022-08-08T17:04:00.520Z,26.30
2022-08-08T17:06:54.432Z,25.80
2022-08-08T17:09:56.361Z,25.30
2022-08-08T17:12:59.973Z,25.10
2022-08-08T17:16:02.451Z,24.90
2022-08-08T17:19:04.518Z,24.70
2022-08-08T17:22:06.574Z,24.60
2022-08-08T17:25:11.721Z,24.50
2022-08-08T17:28:13.958Z,24.50
2022-08-08T17:31:44.451Z,24.40
2022-08-08T17:35:27.686Z,24.40
2022-08-08T17:38:02.008Z,24.30
2022-08-08T17:41:05.951Z,24.20
2022-08-08T17:44:11.037Z,24.10
2022-08-08T17:47:23.272Z,24.00
2022-08-08T17:50:26.986Z,23.90
2022-08-08T17:53:42.630Z,23.80
2022-08-08T17:56:45.510Z,23.80
2022-08-08T17:59:48.233Z,23.70
2022-08-08T18:03:07.334Z,23.60
2022-08-08T18:06:22.026Z,23.60
2022-08-08T18:09:37.941Z,23.50
2022-08-08T18:12:44.356Z,23.40
2022-08-08T18:15:48.147Z,23.40
2022-08-08T18:19:02.600Z,23.20
2022-08-08T18:22:05.536Z,23.20
2022-08-08T18:25:07.874Z,23.20
2022-08-08T18:28:13.151Z,23.20
2022-08-08T18:31:15.763Z,23.10
2022-08-08T18:34:27.535Z,23.10
2022-08-08T18:37:34.046Z,23.00
2022-08-08T18:40:50.897Z,23.00
2022-08-08T18:43:56.167Z,22.90
2022-08-08T18:46:59.775Z,22.80
2022-08-08T18:50:03.039Z,22.70
2022-08-08T18:53:05.161Z,22.80
2022-08-08T18:56:07.325Z,22.70
2022-08-08T18:59:11.125Z,22.60
2022-08-08T19:02:27.876Z,22.50
2022-08-08T19:05:37.794Z,22.40
2022-08-08T19:08:41.462Z,22.30
2022-08-08T19:11:47.070Z,22.30
2022-08-08T19:14:49.009Z,22.20
2022-08-08T19:18:32.979Z,22.20
2022-08-08T19:21:29.180Z,22.20
2022-08-08T19:24:38.147Z,22.20
2022-08-08T19:27:57.282Z,22.00
2022-08-08T19:31:07.287Z,22.10
2022-08-08T19:34:35.786Z,22.00
2022-08-08T19:37:43.403Z,22.00
2022-08-08T19:40:55.917Z,21.90
2022-08-08T19:44:03.356Z,21.80
2022-08-08T19:47:06.496Z,21.70
2022-08-08T19:50:09.453Z,21.70
2022-08-08T19:53:51.420Z,21.60
2022-08-08T19:56:41.519Z,21.50
2022-08-08T19:59:50.690Z,21.40
2022-08-08T20:02:53.441Z,21.40
2022-08-08T20:06:15.394Z,21.30
2022-08-08T20:09:22.622Z,21.30
2022-08-08T20:12:32.854Z,21.20
2022-08-08T20:15:52.603Z,21.10
2022-08-08T20:18:59.290Z,21.00
2022-08-08T20:22:05.208Z,21.10
2022-08-08T20:25:20.200Z,21.00
2022-08-08T20:28:28.522Z,21.00
2022-08-08T20:32:02.829Z,20.90
2022-08-08T20:35:01.067Z,20.80
2022-08-08T20:38:04.369Z,20.70
2022-08-08T20:41:12.135Z,20.60
2022-08-08T20:44:20.749Z,20.60
2022-08-08T20:47:28.862Z,20.60
2022-08-08T20:50:38.249Z,20.60
2022-08-08T20:53:59.233Z,20.60
2022-08-08T20:57:05.706Z,20.50
2022-08-08T21:00:19.562Z,20.50
2022-08-08T21:03:21.737Z,20.50
2022-08-08T21:06:53.207Z,20.50
2022-08-08T21:10:07.904Z,20.40
2022-08-08T21:13:11.221Z,20.40
2022-08-08T21:16:20.442Z,20.30
2022-08-08T21:19:44.033Z,20.30
2022-08-08T21:22:48.614Z,20.20
2022-08-08T21:25:53.416Z,20.20
2022-08-08T21:29:01.034Z,20.10
2022-08-08T21:32:07.736Z,20.20
2022-08-08T21:36:19.065Z,20.20
2022-08-08T21:38:38.364Z,20.10
2022-08-08T21:41:42.982Z,20.10
2022-08-08T21:44:58.515Z,20.00
2022-08-08T21:48:19.501Z,20.00
2022-08-08T21:54:27.332Z,20.00
2022-08-08T21:54:54.128Z,20.00
2022-08-08T21:58:07.595Z,20.10
2022-08-08T22:01:22.427Z,20.00
2022-08-08T22:04:31.967Z,20.10
2022-08-08T22:07:40.936Z,20.10
2022-08-08T22:10:43.172Z,20.10
2022-08-08T22:13:49.959Z,20.10
2022-08-08T22:16:53.560Z,20.10
2022-08-08T22:20:11.337Z,20.20
2022-08-08T22:27:01.488Z,20.20
2022-08-08T22:30:02.767Z,20.20
2022-08-08T22:33:08.961Z,20.20
2022-08-08T22:36:34.374Z,20.10
2022-08-08T22:39:45.608Z,20.10
2022-08-08T22:42:48.442Z,20.10
2022-08-08T22:45:52.653Z,20.10
2022-08-08T22:48:54.895Z,20.10
2022-08-08T22:51:57.588Z,20.10
2022-08-08T22:55:04.692Z,20.20
2022-08-08T22:58:07.461Z,20.20
2022-08-08T23:02:00.961Z,20.20
2022-08-08T23:04:34.492Z,20.10
2022-08-08T23:07:52.196Z,20.10
2022-08-08T23:11:06.297Z,20.10
2022-08-08T23:14:15.728Z,20.10
2022-08-08T23:17:20.993Z,20.10
2022-08-08T23:20:27.333Z,20.10
2022-08-08T23:23:48.763Z,20.10
2022-08-08T23:26:57.840Z,20.10
2022-08-08T23:29:59.996Z,20.10
2022-08-08T23:33:01.917Z,20.10
2022-08-08T23:36:07.879Z,20.10
2022-08-08T23:39:11.101Z,20.10
2022-08-08T23:42:13.372Z,20.00
2022-08-08T23:45:15.319Z,20.00
2022-08-08T23:49:02.865Z,19.90
2022-08-08T23:52:03.656Z,19.90
2022-08-08T23:55:13.885Z,19.90
2022-08-08T23:58:37.702Z,19.90
